createdAt,value
2023-02-03T00:00:35.163Z,99.44
2023-02-03T00:05:58.314Z,99.32
2023-02-03T00:11:04.243Z,99.26
2023-02-03T00:16:07.905Z,98.87
2023-02-03T00:21:11.306Z,98.64
2023-02-03T00:26:17.467Z,98.54
2023-02-03T00:31:24.149Z,98.37
2023-02-03T00:36:27.677Z,97.73
2023-02-03T00:41:31.821Z,97.44
2023-02-03T00:46:36.382Z,97.25
2023-02-03T00:51:39.791Z,97.41
2023-02-03T00:56:52.658Z,97.56
2023-02-03T01:01:59.177Z,97.77
2023-02-03T01:07:02.343Z,97.65
2023-02-03T01:12:06.113Z,97.67
2023-02-03T01:17:10.224Z,97.84
2023-02-03T01:22:13.636Z,97.88
2023-02-03T01:27:16.902Z,97.88
2023-02-03T01:32:20.124Z,97.61
2023-02-03T01:37:23.298Z,97.68
2023-02-03T01:42:26.569Z,97.66
2023-02-03T01:47:50.506Z,97.76
2023-02-03T01:52:59.163Z,97.64
2023-02-03T01:58:09.053Z,97.20
2023-02-03T02:03:13.779Z,96.83
2023-02-03T02:08:20.138Z,96.14
2023-02-03T02:13:25.002Z,95.59
2023-02-03T02:19:00.861Z,95.64
2023-02-03T02:24:50.293Z,94.93
2023-02-03T02:30:15.643Z,94.93
2023-02-03T02:35:27.391Z,95.07
2023-02-03T02:40:50.877Z,94.91
2023-02-03T02:46:00.538Z,94.96
2023-02-03T02:51:07.254Z,94.92
2023-02-03T02:56:15.665Z,95.09
2023-02-03T03:01:19.684Z,95.02
2023-02-03T03:06:34.082Z,94.56
2023-02-03T03:12:02.450Z,94.49
2023-02-03T03:17:30.442Z,94.94
2023-02-03T03:22:51.710Z,95.17
2023-02-03T03:28:03.696Z,95.16
2023-02-03T03:33:16.536Z,95.59
2023-02-03T03:38:25.215Z,95.67
2023-02-03T03:43:38.311Z,95.56
2023-02-03T03:48:56.722Z,95.36
2023-02-03T03:54:09.522Z,95.31
2023-02-03T03:59:17.045Z,95.12
2023-02-03T04:04:24.508Z,95.05
2023-02-03T04:09:27.801Z,94.90
2023-02-03T04:14:33.786Z,94.96
2023-02-03T04:19:37.286Z,94.89
2023-02-03T04:24:42.191Z,95.05
2023-02-03T04:29:47.587Z,95.24
2023-02-03T04:34:50.749Z,95.24
2023-02-03T04:39:55.691Z,94.85
2023-02-03T04:44:58.929Z,95.16
2023-02-03T04:50:02.483Z,95.63
2023-02-03T04:55:06.028Z,96.08
2023-02-03T05:00:10.848Z,96.47
2023-02-03T05:05:13.944Z,96.88
2023-02-03T05:10:17.130Z,96.98
2023-02-03T05:15:20.276Z,97.58
2023-02-03T05:20:23.501Z,97.52
2023-02-03T05:25:26.865Z,97.70
2023-02-03T05:30:30.293Z,97.81
2023-02-03T05:35:33.851Z,97.91
2023-02-03T05:40:58.576Z,98.02
2023-02-03T05:46:25.996Z,98.09
2023-02-03T05:51:29.246Z,98.19
2023-02-03T05:56:32.433Z,98.53
2023-02-03T06:01:36.095Z,98.12
2023-02-03T06:06:39.223Z,98.20
2023-02-03T06:12:07.420Z,98.52
2023-02-03T06:17:10.649Z,98.55
2023-02-03T06:22:13.838Z,98.75
2023-02-03T06:27:17.337Z,99.07
2023-02-03T06:32:20.575Z,98.83
2023-02-03T06:37:24.863Z,98.65
2023-02-03T06:42:31.632Z,98.48
2023-02-03T06:47:35.392Z,98.55
2023-02-03T06:52:38.674Z,98.29
2023-02-03T06:57:46.923Z,98.67
2023-02-03T07:02:58.440Z,98.88
2023-02-03T07:08:02.912Z,99.44
2023-02-03T07:13:06.767Z,99.78
2023-02-03T07:18:09.973Z,99.27
2023-02-03T07:24:04.942Z,99.10
2023-02-03T07:29:08.305Z,98.49
2023-02-03T07:34:34.301Z,97.94
2023-02-03T07:39:40.231Z,97.80
2023-02-03T07:44:43.557Z,97.62
2023-02-03T07:49:46.769Z,97.86
2023-02-03T07:54:50.209Z,97.52
2023-02-03T07:59:58.629Z,97.20
2023-02-03T08:05:27.551Z,96.57
2023-02-03T08:10:30.976Z,96.48
2023-02-03T08:15:34.563Z,95.69
2023-02-03T08:20:49.659Z,95.20
2023-02-03T08:25:53.110Z,95.26
2023-02-03T08:30:57.853Z,95.06
2023-02-03T08:36:01.221Z,94.03
2023-02-03T08:41:13.244Z,92.91
2023-02-03T08:46:16.384Z,92.33
2023-02-03T08:51:19.669Z,91.80
2023-02-03T08:56:22.793Z,91.34
2023-02-03T09:01:26.356Z,91.25
2023-02-03T09:06:30.989Z,91.12
2023-02-03T09:11:34.454Z,90.08
2023-02-03T09:16:38.025Z,89.43
2023-02-03T09:21:46.979Z,88.51
2023-02-03T09:26:51.551Z,88.46
2023-02-03T09:31:55.124Z,87.58
2023-02-03T09:36:58.331Z,86.55
2023-02-03T09:42:09.247Z,86.58
2023-02-03T09:47:27.216Z,86.00
2023-02-03T09:52:37.423Z,85.45
2023-02-03T09:57:56.110Z,84.66
2023-02-03T10:03:07.817Z,83.76
2023-02-03T10:08:22.391Z,84.03
2023-02-03T10:13:51.391Z,83.35
2023-02-03T10:19:20.260Z,82.33
2023-02-03T10:24:40.786Z,82.09
2023-02-03T10:29:44.371Z,81.26
2023-02-03T10:34:49.518Z,81.00
2023-02-03T10:39:54.505Z,80.40
2023-02-03T10:45:00.062Z,80.27
2023-02-03T10:50:15.795Z,80.79
2023-02-03T10:55:23.231Z,81.03
2023-02-03T11:00:53.773Z,80.80
2023-02-03T11:06:13.670Z,80.40
2023-02-03T11:11:42.070Z,80.11
2023-02-03T11:16:47.455Z,80.67
2023-02-03T11:21:56.899Z,80.02
2023-02-03T11:27:37.410Z,80.27
2023-02-03T11:32:52.861Z,79.99
2023-02-03T11:38:01.216Z,80.08
2023-02-03T11:43:15.947Z,80.03
2023-02-03T11:48:35.778Z,80.19
2023-02-03T11:53:57.351Z,79.93
2023-02-03T11:59:50.468Z,79.87
2023-02-03T12:05:16.793Z,78.39
2023-02-03T12:10:26.133Z,78.24
2023-02-03T12:15:52.587Z,77.61
2023-02-03T12:21:29.619Z,78.68
2023-02-03T12:27:01.597Z,78.69
2023-02-03T12:32:07.905Z,78.47
2023-02-03T12:37:19.239Z,78.46
2023-02-03T12:42:36.784Z,78.79
2023-02-03T12:48:36.840Z,78.78
2023-02-03T12:54:02.630Z,79.13
2023-02-03T12:59:22.667Z,79.30
2023-02-03T13:04:57.358Z,80.70
2023-02-03T13:10:19.385Z,81.89
2023-02-03T13:15:25.671Z,82.82
2023-02-03T13:20:41.093Z,84.12
2023-02-03T13:26:36.914Z,85.70
2023-02-03T13:32:07.698Z,87.50
2023-02-03T13:37:33.176Z,89.20
2023-02-03T13:42:41.581Z,90.99
2023-02-03T13:47:52.305Z,92.23
2023-02-03T13:53:02.908Z,93.13
2023-02-03T13:58:19.179Z,93.74
2023-02-03T14:03:25.161Z,94.80
2023-02-03T14:08:48.724Z,96.29
2023-02-03T14:13:51.917Z,97.18
2023-02-03T14:18:57.179Z,97.98
2023-02-03T14:24:07.528Z,98.74
2023-02-03T14:29:25.882Z,99.19
2023-02-03T14:34:39.474Z,99.92
2023-02-03T14:40:11.642Z,99.93
2023-02-03T14:45:52.281Z,100.00
2023-02-03T14:52:01.633Z,100.00
2023-02-03T14:57:31.210Z,100.00
2023-02-03T15:02:35.306Z,100.00
2023-02-03T15:07:46.630Z,100.00
2023-02-03T15:12:52.782Z,100.00
2023-02-03T15:18:01.137Z,100.00
2023-02-03T15:23:24.909Z,100.00
2023-02-03T15:28:31.733Z,100.00
2023-02-03T15:33:57.156Z,100.00
2023-02-03T15:39:17.270Z,100.00
2023-02-03T15:44:42.153Z,100.00
2023-02-03T15:50:00.448Z,100.00
2023-02-03T15:55:17.830Z,100.00
2023-02-03T16:00:33.666Z,100.00
2023-02-03T16:05:39.914Z,100.00
2023-02-03T16:10:49.138Z,100.00
2023-02-03T16:16:18.411Z,100.00
2023-02-03T16:21:52.410Z,100.00
2023-02-03T16:26:55.757Z,100.00
2023-02-03T16:32:18.044Z,100.00
2023-02-03T16:37:44.697Z,100.00
2023-02-03T16:43:08.228Z,100.00
2023-02-03T16:48:31.649Z,100.00
2023-02-03T16:53:56.344Z,100.00
2023-02-03T16:58:59.491Z,100.00
2023-02-03T17:04:02.840Z,100.00
2023-02-03T17:09:07.284Z,100.00
2023-02-03T17:14:13.156Z,100.00
2023-02-03T17:19:16.233Z,100.00
2023-02-03T17:24:22.615Z,100.00
2023-02-03T17:29:25.988Z,100.00
2023-02-03T17:34:29.282Z,100.00
2023-02-03T17:55:37.578Z,100.00
2023-02-03T18:00:40.802Z,100.00
2023-02-03T18:05:53.469Z,100.00
2023-02-03T18:10:56.764Z,100.00
2023-02-03T18:16:00.152Z,100.00
2023-02-03T18:21:07.992Z,100.00
2023-02-03T18:26:13.255Z,100.00
2023-02-03T18:31:17.787Z,100.00
2023-02-03T18:36:22.062Z,100.00
2023-02-03T18:41:25.978Z,100.00
2023-02-03T18:46:31.761Z,100.00
2023-02-03T18:51:35.152Z,100.00
2023-02-03T18:56:38.944Z,100.00
2023-02-03T19:01:46.608Z,100.00
2023-02-03T19:06:51.612Z,100.00
2023-02-03T19:11:55.187Z,100.00
2023-02-03T19:16:58.962Z,100.00
2023-02-03T19:22:02.374Z,100.00
2023-02-03T19:27:05.898Z,100.00
2023-02-03T19:32:09.933Z,100.00
2023-02-03T19:37:13.548Z,100.00
2023-02-03T19:42:17.045Z,100.00
2023-02-03T19:47:20.797Z,100.00
2023-02-03T19:52:24.370Z,100.00
2023-02-03T19:57:27.525Z,100.00
2023-02-03T20:02:31.204Z,100.00
2023-02-03T20:07:34.626Z,100.00
2023-02-03T20:12:58.914Z,100.00
2023-02-03T20:18:02.314Z,100.00
2023-02-03T20:29:10.379Z,100.00
2023-02-03T20:34:13.619Z,100.00
2023-02-03T20:39:20.030Z,100.00
2023-02-03T20:44:23.352Z,100.00
2023-02-03T20:49:26.709Z,100.00
2023-02-03T20:54:30.295Z,100.00
2023-02-03T20:59:33.490Z,100.00
2023-02-03T21:04:55.474Z,100.00
2023-02-03T21:10:00.297Z,100.00
2023-02-03T21:15:18.608Z,100.00
2023-02-03T21:20:29.829Z,100.00
2023-02-03T21:25:34.313Z,100.00
2023-02-03T21:30:37.687Z,100.00
2023-02-03T21:35:41.092Z,100.00
2023-02-03T21:40:44.363Z,100.00
2023-02-03T21:45:49.422Z,100.00
2023-02-03T21:50:54.511Z,100.00
2023-02-03T21:56:14.304Z,100.00
2023-02-03T22:01:20.219Z,100.00
2023-02-03T22:06:56.760Z,100.00
2023-02-03T22:12:01.297Z,100.00
2023-02-03T22:17:04.754Z,100.00
2023-02-03T22:22:08.065Z,100.00
2023-02-03T22:27:11.671Z,100.00
2023-02-03T22:32:15.010Z,100.00
2023-02-03T22:37:18.260Z,100.00
2023-02-03T22:42:24.270Z,100.00
2023-02-03T22:47:27.413Z,100.00
2023-02-03T22:52:44.552Z,100.00
2023-02-03T22:57:50.061Z,100.00
2023-02-03T23:02:53.552Z,100.00
2023-02-03T23:08:07.304Z,100.00
2023-02-03T23:13:23.331Z,100.00
2023-02-03T23:18:27.062Z,100.00
2023-02-03T23:23:30.404Z,100.00
2023-02-03T23:28:33.717Z,100.00
2023-02-03T23:33:37.408Z,100.00
2023-02-03T23:38:44.095Z,100.00
2023-02-03T23:43:53.997Z,100.00
2023-02-03T23:49:07.552Z,100.00
2023-02-03T23:54:11.188Z,100.00
2023-02-03T23:59:14.614Z,100.00
